Time;durP1;ratioP1;P1;durP2;ratioP2;P2;SDS_P1;SDS_P2;PMS_P1;PMS_P2;Temp;Humidity;BMP_temperature;BMP_pressure;BME280_temperature;BME280_humidity;BME280_pressure;Samples;Min_cycle;Max_cycle;Signal;HPM_P1;HPM_P2
2021/01/10 00:01:11;;;;;;;7.20;4.80;;;-2.10;99.90;-3.50;97077.00;;;;5081719;28;20441;-79
2021/01/10 00:03:39;;;;;;;6.47;4.80;;;-2.10;99.90;-3.50;97090.00;;;;5081601;28;20514;-79
2021/01/10 00:06:07;;;;;;;11.33;6.00;;;-2.10;99.90;-3.40;97077.00;;;;5080295;28;20434;-78
2021/01/10 00:08:34;;;;;;;7.77;5.37;;;-2.00;99.90;-3.40;97080.00;;;;5079588;28;20434;-78
2021/01/10 00:11:02;;;;;;;7.10;5.73;;;-2.00;99.90;-3.40;97085.00;;;;5081865;28;20434;-80
2021/01/10 00:13:31;;;;;;;6.50;5.67;;;-2.00;99.90;-3.40;97081.00;;;;5081750;28;20473;-80
2021/01/10 00:15:59;;;;;;;8.57;5.80;;;-2.00;99.90;-3.30;97083.00;;;;5082425;28;20436;-78
2021/01/10 00:18:28;;;;;;;10.80;4.97;;;-2.00;99.90;-3.40;97078.00;;;;5081115;28;20434;-78
2021/01/10 00:20:55;;;;;;;8.87;6.13;;;-1.90;99.90;-3.50;97088.00;;;;5080270;28;20426;-78
2021/01/10 00:23:23;;;;;;;7.57;4.93;;;-2.00;99.90;-3.50;97090.00;;;;5083962;28;20525;-79
2021/01/10 00:25:52;;;;;;;7.03;5.23;;;-2.00;99.90;-3.50;97092.00;;;;5083369;28;20418;-79
2021/01/10 00:28:20;;;;;;;8.90;5.70;;;-2.00;99.90;-3.40;97092.00;;;;5080832;28;20552;-80
2021/01/10 00:30:48;;;;;;;7.93;5.90;;;-2.00;99.90;-3.50;97098.00;;;;5083698;28;20441;-78
2021/01/10 00:33:16;;;;;;;8.13;5.50;;;-2.00;99.90;-3.50;97091.00;;;;5079298;28;20446;-77
2021/01/10 00:35:44;;;;;;;9.30;5.50;;;-2.00;99.90;-3.60;97093.00;;;;5080116;28;20425;-78
2021/01/10 00:38:12;;;;;;;7.40;5.23;;;-2.10;99.90;-3.50;97099.00;;;;5083748;28;20433;-79
2021/01/10 00:40:40;;;;;;;8.07;5.90;;;-2.10;99.90;-3.50;97104.00;;;;5083106;28;20445;-81
2021/01/10 00:43:08;;;;;;;7.63;4.50;;;-2.10;99.90;-3.50;97100.00;;;;5082862;28;20526;-78
2021/01/10 00:45:36;;;;;;;7.17;4.53;;;-2.10;99.90;-3.50;97097.00;;;;5083059;28;20442;-79
2021/01/10 00:48:04;;;;;;;7.10;5.00;;;-2.00;99.90;-3.50;97100.00;;;;5082955;28;20473;-79
2021/01/10 00:50:32;;;;;;;6.57;5.90;;;-2.10;99.90;-3.50;97108.00;;;;5081048;28;20431;-79
2021/01/10 00:53:02;;;;;;;10.70;5.60;;;-2.10;99.90;-3.50;97100.00;;;;5079143;28;20446;-77
2021/01/10 00:55:31;;;;;;;5.67;4.40;;;-2.10;99.90;-3.60;97099.00;;;;5079446;28;20524;-78
2021/01/10 00:57:59;;;;;;;8.10;5.00;;;-2.10;99.90;-3.50;97101.00;;;;5081949;28;20476;-79
2021/01/10 01:00:27;;;;;;;5.83;5.00;;;-2.10;99.90;-3.50;97097.00;;;;5080287;28;20433;-78
2021/01/10 01:02:54;;;;;;;10.03;4.77;;;-2.10;99.90;-3.60;97102.00;;;;5080046;28;20446;-78
2021/01/10 01:05:22;;;;;;;7.50;5.23;;;-2.10;99.90;-3.50;97108.00;;;;5081856;28;20434;-79
2021/01/10 01:07:50;;;;;;;8.33;5.47;;;-2.10;99.90;-3.60;97105.00;;;;5079846;28;20469;-79
2021/01/10 01:10:19;;;;;;;7.30;5.27;;;-2.10;99.90;-3.60;97109.00;;;;5080349;28;20565;-78
2021/01/10 01:12:47;;;;;;;5.87;4.60;;;-2.10;99.90;-3.50;97118.00;;;;5080084;28;20452;-78
2021/01/10 01:15:15;;;;;;;4.73;3.90;;;-2.10;99.90;-3.40;97107.00;;;;5078579;28;20429;-78
2021/01/10 01:17:43;;;;;;;8.40;5.00;;;-2.10;99.90;-3.40;97098.00;;;;5077289;28;20437;-78
2021/01/10 01:20:11;;;;;;;7.13;4.87;;;-2.10;99.90;-3.50;97109.00;;;;5080658;28;20427;-78
2021/01/10 01:22:39;;;;;;;6.50;4.90;;;-2.00;99.90;-3.50;97108.00;;;;5080780;28;20454;-78
2021/01/10 01:25:09;;;;;;;7.47;4.53;;;-2.00;99.90;-3.50;97110.00;;;;5080589;28;20438;-79
2021/01/10 01:27:37;;;;;;;11.83;5.53;;;-2.00;99.90;-3.50;97108.00;;;;5080547;28;20474;-78
2021/01/10 01:30:06;;;;;;;9.23;4.90;;;-2.00;99.90;-3.60;97102.00;;;;5081085;28;20449;-78
2021/01/10 01:32:35;;;;;;;8.33;5.03;;;-2.10;99.90;-3.60;97103.00;;;;5080200;28;20461;-78
2021/01/10 01:35:04;;;;;;;5.07;4.47;;;-2.10;99.90;-3.60;97099.00;;;;5080582;28;20440;-78
2021/01/10 01:37:34;;;;;;;6.80;5.30;;;-2.10;99.90;-3.60;97112.00;;;;5079754;28;20422;-78
2021/01/10 01:40:03;;;;;;;7.87;4.83;;;-1.70;99.90;-3.50;97114.00;;;;5080972;28;20427;-79
2021/01/10 01:42:31;;;;;;;7.87;5.23;;;-2.10;99.90;-3.50;97102.00;;;;5080019;28;20446;-79
2021/01/10 01:45:00;;;;;;;5.07;4.43;;;-2.10;99.90;-3.60;97104.00;;;;5080380;28;20454;-79
2021/01/10 01:47:28;;;;;;;6.00;4.60;;;-2.10;99.90;-3.80;97100.00;;;;5079909;28;20990;-79
2021/01/10 01:49:56;;;;;;;7.40;5.10;;;-2.10;99.90;-3.80;97095.00;;;;5079515;28;20430;-80
2021/01/10 01:52:24;;;;;;;8.53;5.57;;;-2.20;99.90;-3.90;97093.00;;;;5079388;28;20438;-79
2021/01/10 01:54:53;;;;;;;7.40;5.10;;;-2.10;99.90;-4.00;97096.00;;;;5078955;28;20452;-79
2021/01/10 01:57:21;;;;;;;8.50;5.27;;;-2.30;99.90;-3.90;97084.00;;;;5076742;28;20422;-79
2021/01/10 01:59:49;;;;;;;5.60;4.93;;;-2.40;99.90;-3.90;97096.00;;;;5076391;28;20434;-79
2021/01/10 02:02:17;;;;;;;8.27;5.23;;;-2.40;99.90;-3.90;97088.00;;;;5075521;28;20422;-78
2021/01/10 02:04:51;;;;;;;7.37;4.97;;;-2.40;99.90;-3.90;97088.00;;;;5075778;28;20422;-78
2021/01/10 02:07:28;;;;;;;7.00;4.57;;;-2.40;99.90;-3.80;97090.00;;;;5073635;28;20547;-78
2021/01/10 02:10:06;;;;;;;6.37;4.73;;;-2.40;99.90;-3.90;97089.00;;;;5075395;28;20426;-79
2021/01/10 02:12:38;;;;;;;9.17;5.47;;;-2.40;99.90;-3.90;97086.00;;;;5075727;28;20473;-80
2021/01/10 02:15:12;;;;;;;6.13;4.63;;;-2.40;99.90;-4.00;97093.00;;;;5076734;28;20415;-80
2021/01/10 02:17:42;;;;;;;8.87;5.00;;;-2.40;99.90;-4.00;97096.00;;;;5075862;28;20422;-79
2021/01/10 02:20:14;;;;;;;7.00;4.93;;;-2.40;99.90;-3.90;97090.00;;;;5076574;28;20458;-80
2021/01/10 02:22:47;;;;;;;8.40;6.00;;;-2.50;99.90;-3.90;97100.00;;;;5075711;28;20470;-79
2021/01/10 02:25:16;;;;;;;9.13;5.30;;;-2.40;99.90;-3.80;97098.00;;;;5075666;28;20456;-79
2021/01/10 02:27:45;;;;;;;9.23;5.37;;;-2.40;99.90;-3.80;97100.00;;;;5074918;28;20478;-81
2021/01/10 02:30:15;;;;;;;6.40;4.77;;;-2.40;99.90;-3.70;97110.00;;;;5075388;28;20418;-79
2021/01/10 02:32:54;;;;;;;6.30;4.67;;;-1.20;99.90;-3.70;97107.00;;;;5075407;28;20450;-79
2021/01/10 02:35:23;;;;;;;6.43;4.40;;;-2.30;99.90;-3.80;97100.00;;;;5075459;28;20464;-79
2021/01/10 02:38:25;;;;;;;8.47;4.93;;;-2.30;99.90;-3.90;97092.00;;;;5075217;28;20512;-79
2021/01/10 02:41:05;;;;;;;5.47;3.87;;;-2.30;99.90;-4.00;97092.00;;;;5074560;28;20418;-79
2021/01/10 02:43:35;;;;;;;7.90;4.53;;;-2.40;99.90;-4.00;97094.00;;;;5074537;28;20454;-80
2021/01/10 02:46:06;;;;;;;5.43;4.90;;;-2.50;99.90;-4.00;97097.00;;;;5066847;28;20438;-81
2021/01/10 02:48:34;;;;;;;8.50;4.53;;;-2.50;99.90;-4.00;97087.00;;;;5074584;28;20478;-79
2021/01/10 02:51:10;;;;;;;4.40;3.93;;;-2.50;99.90;-4.00;97095.00;;;;5074749;28;20424;-81
2021/01/10 02:53:38;;;;;;;7.60;5.10;;;-2.50;99.90;-4.00;97092.00;;;;5074407;28;20454;-80
2021/01/10 02:56:07;;;;;;;7.10;4.80;;;-2.50;99.90;-4.00;97096.00;;;;5074195;28;20505;-79
2021/01/10 02:58:38;;;;;;;5.53;4.83;;;-2.50;99.90;-3.90;97082.00;;;;5074354;28;20885;-80
2021/01/10 03:01:10;;;;;;;6.80;4.80;;;-2.50;99.90;-4.00;97093.00;;;;5074407;28;20521;-80
2021/01/10 03:03:38;;;;;;;5.67;4.43;;;-2.50;99.90;-4.00;97087.00;;;;5074408;28;20441;-80
2021/01/10 03:06:06;;;;;;;5.67;4.77;;;-2.50;99.90;-4.00;97086.00;;;;5074841;28;20426;-79
2021/01/10 03:08:35;;;;;;;6.30;5.00;;;-2.50;99.90;-4.10;97079.00;;;;5073240;28;20516;-79
2021/01/10 03:11:03;;;;;;;4.43;4.03;;;-2.50;99.90;-4.10;97088.00;;;;5075134;28;20426;-78
2021/01/10 03:13:32;;;;;;;6.33;4.30;;;-2.50;99.90;-4.10;97084.00;;;;5074043;28;20454;-79
2021/01/10 03:16:02;;;;;;;6.17;4.07;;;-2.50;99.90;-4.20;97082.00;;;;5074652;28;20426;-80
2021/01/10 03:18:29;;;;;;;5.23;4.17;;;-2.60;99.90;-4.20;97086.00;;;;5073677;28;20434;-81
2021/01/10 03:20:57;;;;;;;7.93;4.97;;;-2.60;99.90;-4.20;97079.00;;;;5075048;28;20466;-81
2021/01/10 03:23:25;;;;;;;7.13;4.50;;;-2.60;99.90;-4.20;97089.00;;;;5073799;28;20501;-80
2021/01/10 03:25:53;;;;;;;6.33;4.20;;;-2.60;99.90;-4.10;97082.00;;;;5074561;28;20434;-80
2021/01/10 03:28:21;;;;;;;6.37;4.00;;;-2.60;99.90;-4.10;97073.00;;;;5073794;28;20481;-80
2021/01/10 03:30:49;;;;;;;4.60;4.03;;;-2.60;99.90;-4.00;97072.00;;;;5074649;28;20948;-80
2021/01/10 03:33:17;;;;;;;7.40;4.47;;;-2.60;99.90;-4.00;97074.00;;;;5074911;28;20501;-80
2021/01/10 03:35:45;;;;;;;7.53;4.10;;;-2.60;99.90;-4.00;97075.00;;;;5074689;28;20441;-80
2021/01/10 03:38:13;;;;;;;8.83;4.23;;;-2.60;99.90;-3.90;97084.00;;;;5073938;28;20437;-80
2021/01/10 03:40:40;;;;;;;5.13;4.13;;;-2.50;99.90;-4.00;97078.00;;;;5074397;28;20434;-81
2021/01/10 03:43:08;;;;;;;6.17;4.57;;;-2.50;99.90;-3.90;97081.00;;;;5074251;28;20449;-80
2021/01/10 03:45:36;;;;;;;6.37;4.00;;;-2.50;99.90;-3.90;97075.00;;;;5074950;28;20438;-80
2021/01/10 03:48:06;;;;;;;6.57;4.30;;;-2.50;99.90;-3.90;97076.00;;;;5073347;28;20917;-80
2021/01/10 03:50:33;;;;;;;9.20;4.77;;;-2.50;99.90;-3.80;97074.00;;;;5075763;28;20434;-80
2021/01/10 03:53:01;;;;;;;9.23;4.73;;;-2.40;99.90;-3.80;97076.00;;;;5075007;28;20447;-81
2021/01/10 03:55:29;;;;;;;5.17;4.33;;;-2.40;99.90;-3.90;97077.00;;;;5074336;28;20418;-80
2021/01/10 03:57:56;;;;;;;5.70;4.43;;;-2.40;99.90;-3.80;97086.00;;;;5073752;28;20929;-80
2021/01/10 04:00:24;;;;;;;5.33;3.93;;;-2.40;99.90;-3.80;97077.00;;;;5073570;28;20424;-81
2021/01/10 04:02:52;;;;;;;5.70;4.03;;;-2.40;99.90;-3.60;97076.00;;;;5072080;28;20450;-80
2021/01/10 04:05:21;;;;;;;13.90;8.33;;;-2.30;99.90;-3.70;97074.00;;;;5073273;28;20525;-80
2021/01/10 04:07:48;;;;;;;10.40;7.00;;;-2.30;99.90;-3.70;97070.00;;;;5071825;28;20620;-81
2021/01/10 04:10:16;;;;;;;8.90;4.40;;;-2.30;99.90;-3.80;97077.00;;;;5072388;28;20429;-80
2021/01/10 04:12:44;;;;;;;4.50;4.00;;;-2.30;99.90;-3.90;97072.00;;;;5072078;28;20496;-80
2021/01/10 04:15:13;;;;;;;4.57;3.47;;;-2.30;99.90;-3.90;97083.00;;;;5071644;28;20433;-80
2021/01/10 04:17:41;;;;;;;4.93;4.43;;;-2.30;99.90;-3.90;97080.00;;;;5071780;28;20429;-81
2021/01/10 04:20:10;;;;;;;4.80;3.53;;;-2.40;99.90;-3.90;97084.00;;;;5074211;28;20465;-81
2021/01/10 04:22:38;;;;;;;4.83;4.07;;;-2.40;99.90;-3.90;97077.00;;;;5074818;28;20450;-80
2021/01/10 04:25:07;;;;;;;6.63;4.80;;;-2.40;99.90;-3.90;97079.00;;;;5073971;28;20426;-80
2021/01/10 04:27:35;;;;;;;7.33;5.20;;;-2.40;99.90;-3.90;97080.00;;;;5073667;28;20859;-81
2021/01/10 04:30:04;;;;;;;4.67;4.23;;;-2.40;99.90;-3.80;97074.00;;;;5074914;28;20434;-81
2021/01/10 04:32:33;;;;;;;5.93;4.27;;;-2.40;99.90;-3.90;97077.00;;;;5075866;28;20474;-81
2021/01/10 04:35:01;;;;;;;5.33;4.50;;;-2.40;99.90;-3.90;97088.00;;;;5075298;28;20431;-81
2021/01/10 04:37:29;;;;;;;6.87;5.03;;;-2.40;99.90;-3.80;97095.00;;;;5073732;28;20426;-81
2021/01/10 04:39:58;;;;;;;6.47;4.47;;;-2.40;99.90;-3.80;97084.00;;;;5075827;28;20426;-81
2021/01/10 04:42:27;;;;;;;9.80;4.80;;;-2.40;99.90;-3.80;97082.00;;;;5074312;28;20450;-81
2021/01/10 04:44:55;;;;;;;5.03;3.83;;;-2.30;99.90;-3.80;97095.00;;;;5074890;28;20426;-81
2021/01/10 04:47:23;;;;;;;9.37;5.37;;;-2.30;99.90;-3.70;97090.00;;;;5074558;28;20516;-81
2021/01/10 04:49:52;;;;;;;7.80;4.17;;;-2.30;99.90;-3.70;97091.00;;;;5074365;28;20434;-80
2021/01/10 04:52:24;;;;;;;3.97;3.40;;;-2.30;99.90;-3.70;97094.00;;;;5075341;28;20446;-81
2021/01/10 04:54:53;;;;;;;6.27;4.20;;;-2.30;99.90;-3.70;97092.00;;;;5078346;28;20429;-80
2021/01/10 04:57:22;;;;;;;4.73;4.27;;;-2.20;99.90;-3.60;97100.00;;;;5078164;28;20466;-81
2021/01/10 04:59:51;;;;;;;6.13;5.53;;;-2.20;99.90;-3.50;97102.00;;;;5077506;28;20433;-80
2021/01/10 05:02:26;;;;;;;6.10;4.07;;;-2.20;99.90;-3.50;97106.00;;;;5078012;28;20423;-81
2021/01/10 05:04:55;;;;;;;7.03;4.63;;;-2.20;99.90;-3.50;97102.00;;;;5078497;28;20457;-81
2021/01/10 05:07:22;;;;;;;5.37;3.93;;;-2.10;99.90;-3.40;97101.00;;;;5078084;28;20564;-82
2021/01/10 05:09:50;;;;;;;5.20;3.77;;;-2.10;99.90;-3.40;97110.00;;;;5078836;28;20426;-80
2021/01/10 05:12:18;;;;;;;6.47;3.97;;;-2.00;99.90;-3.40;97119.00;;;;5078536;28;20427;-81
2021/01/10 05:14:47;;;;;;;4.47;4.07;;;-2.00;99.90;-3.40;97111.00;;;;5078503;28;20498;-81
2021/01/10 05:17:20;;;;;;;5.23;4.20;;;-2.00;99.90;-3.40;97116.00;;;;5077303;28;20430;-80
2021/01/10 05:19:50;;;;;;;5.87;4.67;;;-2.00;99.90;-3.50;97115.00;;;;5077447;28;20419;-81
2021/01/10 05:22:20;;;;;;;6.37;4.03;;;-2.00;99.90;-3.50;97120.00;;;;5078084;28;20442;-80
2021/01/10 05:24:48;;;;;;;7.77;4.83;;;-2.00;99.90;-3.50;97115.00;;;;5078626;28;20430;-79
2021/01/10 05:27:16;;;;;;;4.43;4.03;;;-2.00;99.90;-3.50;97113.00;;;;5078334;28;20560;-81
2021/01/10 05:29:45;;;;;;;4.87;4.43;;;-2.00;99.90;-3.50;97110.00;;;;5078771;28;20422;-79
2021/01/10 05:32:13;;;;;;;7.30;5.13;;;-2.00;99.90;-3.50;97115.00;;;;5077652;28;20552;-79
2021/01/10 05:34:41;;;;;;;7.50;5.13;;;-2.00;99.90;-3.50;97118.00;;;;5077421;28;20423;-79
2021/01/10 05:37:14;;;;;;;6.77;4.57;;;-2.00;99.90;-3.40;97120.00;;;;5077124;28;20509;-80
2021/01/10 05:39:45;;;;;;;5.50;4.57;;;-2.00;99.90;-3.40;97122.00;;;;5077712;28;20481;-79
2021/01/10 05:42:14;;;;;;;4.30;3.83;;;-2.00;99.90;-3.40;97119.00;;;;5077764;28;20422;-78
2021/01/10 05:44:50;;;;;;;6.53;4.60;;;-2.00;99.90;-3.40;97123.00;;;;5077242;28;20426;-80
2021/01/10 05:47:20;;;;;;;5.73;4.27;;;-2.00;99.90;-3.50;97132.00;;;;5077152;28;20470;-80
2021/01/10 05:49:49;;;;;;;6.97;5.03;;;-2.00;99.90;-3.60;97126.00;;;;5078234;28;20449;-80
2021/01/10 05:52:18;;;;;;;6.73;4.93;;;-2.00;99.90;-3.50;97130.00;;;;5077326;28;20423;-80
2021/01/10 05:54:47;;;;;;;5.33;4.40;;;-2.10;99.90;-3.50;97126.00;;;;5077785;28;20423;-81
2021/01/10 05:57:16;;;;;;;8.00;5.30;;;-2.10;99.90;-3.60;97123.00;;;;5076820;28;20433;-80
2021/01/10 05:59:49;;;;;;;6.47;5.60;;;-2.10;99.90;-3.50;97137.00;;;;5076674;28;20426;-80
2021/01/10 06:02:29;;;;;;;6.50;4.90;;;-2.10;99.90;-3.60;97126.00;;;;5075310;28;20442;-80
2021/01/10 06:05:11;;;;;;;5.43;4.40;;;-2.10;99.90;-3.60;97125.00;;;;5073297;28;20422;-80
2021/01/10 06:07:39;;;;;;;6.40;4.77;;;-2.10;99.90;-3.60;97133.00;;;;5074281;28;20482;-80
2021/01/10 06:10:09;;;;;;;6.17;4.20;;;-2.10;99.90;-3.70;97127.00;;;;5073192;28;20423;-80
2021/01/10 06:12:37;;;;;;;5.40;4.47;;;-2.10;99.90;-3.70;97129.00;;;;5074508;28;20524;-80
2021/01/10 06:15:14;;;;;;;6.17;4.90;;;-2.20;99.90;-3.70;97140.00;;;;5076557;28;20426;-80
2021/01/10 06:17:44;;;;;;;6.97;4.57;;;-2.20;99.90;-3.70;97126.00;;;;5078394;28;20483;-79
2021/01/10 06:20:26;;;;;;;7.67;4.67;;;-2.20;99.90;-3.60;97128.00;;;;5067257;28;20431;-80
2021/01/10 06:22:56;;;;;;;4.93;4.27;;;-2.20;99.90;-3.60;97131.00;;;;5092796;28;20473;-80
2021/01/10 06:25:26;;;;;;;5.43;4.73;;;-2.20;99.90;-3.60;97124.00;;;;5092206;28;20480;-80
2021/01/10 06:28:02;;;;;;;5.67;5.00;;;-2.20;99.90;-3.60;97125.00;;;;5074552;28;20505;-80
2021/01/10 06:30:33;;;;;;;5.53;4.53;;;-2.20;99.90;-3.50;97134.00;;;;5075561;28;20485;-79
2021/01/10 06:33:06;;;;;;;8.93;3.77;;;-2.10;99.90;-3.50;97131.00;;;;5074287;28;20466;-81
2021/01/10 06:35:37;;;;;;;6.83;4.37;;;-2.10;99.90;-3.50;97128.00;;;;5073200;28;20470;-81
2021/01/10 06:38:07;;;;;;;10.30;3.80;;;-2.10;99.90;-3.50;97133.00;;;;5075036;28;20458;-80
2021/01/10 06:40:36;;;;;;;10.67;4.83;;;-2.10;99.90;-3.50;97134.00;;;;5076024;28;20462;-81
2021/01/10 06:43:06;;;;;;;5.60;4.73;;;-2.10;99.90;-3.50;97131.00;;;;5075637;28;20480;-81
2021/01/10 06:45:39;;;;;;;6.90;5.67;;;-2.10;99.90;-3.40;97133.00;;;;5076029;28;20469;-80
2021/01/10 06:48:09;;;;;;;5.27;4.10;;;-2.10;99.90;-3.40;97134.00;;;;5076458;28;20501;-80
2021/01/10 06:50:37;;;;;;;5.50;4.80;;;-2.00;99.90;-3.40;97135.00;;;;5078699;28;20478;-80
2021/01/10 06:53:09;;;;;;;5.77;4.57;;;-2.00;99.90;-3.40;97138.00;;;;5077221;28;20463;-80
2021/01/10 06:55:38;;;;;;;6.20;4.83;;;-2.00;99.90;-3.50;97139.00;;;;5075798;28;20462;-80
2021/01/10 06:58:07;;;;;;;5.30;4.47;;;-2.00;99.90;-3.40;97138.00;;;;5077505;28;20520;-80
2021/01/10 07:00:53;;;;;;;6.43;5.07;;;-2.00;99.90;-3.40;97131.00;;;;5077464;28;20466;-81
2021/01/10 07:03:22;;;;;;;7.43;5.87;;;-2.00;99.90;-3.30;97128.00;;;;5078039;28;20458;-80
2021/01/10 07:06:06;;;;;;;6.60;5.03;;;-2.00;99.90;-3.30;97135.00;;;;5077875;28;20457;-80
2021/01/10 07:08:42;;;;;;;7.50;5.37;;;-2.00;99.90;-3.30;97142.00;;;;5069502;28;20474;-81
2021/01/10 07:11:35;;;;;;;6.50;5.27;;;-1.90;99.90;-3.30;97128.00;;;;5097957;28;20472;-80
2021/01/10 07:14:26;;;;;;;5.93;5.23;;;-1.90;99.90;-3.30;97128.00;;;;5083985;28;20480;-79
2021/01/10 07:17:17;;;;;;;10.80;4.90;;;-1.90;99.90;-3.30;97138.00;;;;5091107;28;20457;-80
2021/01/10 07:19:50;;;;;;;7.33;5.13;;;-1.90;99.90;-3.20;97136.00;;;;5094011;28;20457;-79
2021/01/10 07:22:32;;;;;;;5.67;5.13;;;-1.90;99.90;-3.20;97143.00;;;;5075714;28;20454;-79
2021/01/10 07:25:35;;;;;;;6.37;5.20;;;-1.90;99.90;-3.10;97154.00;;;;5075604;28;20561;-80
2021/01/10 07:28:40;;;;;;;11.13;5.13;;;-1.80;99.90;-3.10;97150.00;;;;5074256;28;20480;-80
2021/01/10 07:31:11;;;;;;;8.20;5.93;;;-1.80;99.90;-3.00;97150.00;;;;5055329;28;20528;-80
2021/01/10 07:33:39;;;;;;;8.33;6.00;;;-1.80;99.90;-3.00;97147.00;;;;5055853;28;20553;-79
2021/01/10 07:36:08;;;;;;;9.43;6.63;;;-1.60;99.90;-3.00;97150.00;;;;5056803;28;20463;-80
2021/01/10 07:38:37;;;;;;;8.67;6.60;;;-1.70;99.90;-3.00;97144.00;;;;5073374;28;20485;-77
2021/01/10 07:41:28;;;;;;;8.57;6.97;;;-1.70;99.90;-2.90;97147.00;;;;5077804;28;20454;-79
2021/01/10 07:43:58;;;;;;;9.70;6.10;;;-1.60;99.90;-2.90;97147.00;;;;5077708;28;20518;-81
2021/01/10 07:47:02;;;;;;;8.80;6.47;;;-1.60;99.90;-2.90;97145.00;;;;5080746;28;20473;-79
2021/01/10 07:49:50;;;;;;;9.37;6.00;;;-1.60;99.90;-2.80;97156.00;;;;5077021;28;20474;-80
2021/01/10 07:52:54;;;;;;;9.53;7.20;;;-1.50;99.90;-2.80;97156.00;;;;5075950;28;20466;-79
2021/01/10 07:55:27;;;;;;;15.67;7.43;;;-1.50;99.90;-2.90;97146.00;;;;5073497;28;20466;-77
2021/01/10 07:58:17;;;;;;;14.23;9.33;;;-1.30;99.90;-2.90;97163.00;;;;5075007;28;20462;-80
2021/01/10 08:00:52;;;;;;;20.30;12.43;;;-1.50;99.90;-2.80;97155.00;;;;5074742;28;20554;-79
2021/01/10 08:03:25;;;;;;;13.50;7.97;;;-1.50;99.90;-2.80;97150.00;;;;5075563;28;20469;-80
2021/01/10 08:05:59;;;;;;;11.47;7.67;;;-1.50;99.90;-2.80;97149.00;;;;5076176;28;20535;-79
2021/01/10 08:08:44;;;;;;;8.33;6.70;;;-1.20;99.90;-2.70;97151.00;;;;5084782;28;20548;-79
2021/01/10 08:11:14;;;;;;;12.97;7.83;;;-1.40;99.90;-2.60;97143.00;;;;5095252;28;20465;-79
2021/01/10 08:13:44;;;;;;;9.70;7.80;;;-1.30;99.90;-2.60;97152.00;;;;5083137;28;20939;-79
2021/01/10 08:16:13;;;;;;;9.43;7.90;;;-1.40;99.90;-2.60;97153.00;;;;5074074;28;20461;-79
2021/01/10 08:18:45;;;;;;;11.87;7.47;;;-1.30;99.90;-2.50;97157.00;;;;5075430;28;20462;-79
2021/01/10 08:21:15;;;;;;;8.20;7.30;;;-1.10;99.90;-2.60;97155.00;;;;5075073;28;20467;-80
2021/01/10 08:23:46;;;;;;;12.53;8.37;;;-1.20;99.90;-2.70;97155.00;;;;5093618;28;20469;-80
2021/01/10 08:26:17;;;;;;;11.53;7.57;;;-1.30;99.90;-2.80;97148.00;;;;5095213;28;20459;-81
2021/01/10 08:28:47;;;;;;;10.77;7.53;;;-1.30;99.90;-2.70;97157.00;;;;5095486;28;20473;-79
2021/01/10 08:31:19;;;;;;;9.87;7.87;;;-1.30;99.90;-2.60;97160.00;;;;5096076;28;20995;-81
2021/01/10 08:33:58;;;;;;;13.77;8.23;;;-1.30;99.90;-2.50;97162.00;;;;5097067;28;20519;-79
2021/01/10 08:36:26;;;;;;;11.13;8.20;;;-1.20;99.90;-2.50;97161.00;;;;5098496;28;20453;-80
2021/01/10 08:38:58;;;;;;;9.73;7.60;;;-1.20;99.90;-2.50;97167.00;;;;5097312;28;21060;-79
2021/01/10 08:41:29;;;;;;;10.03;7.67;;;-1.20;99.90;-2.60;97165.00;;;;5097671;28;20456;-80
2021/01/10 08:44:00;;;;;;;11.07;8.30;;;-1.20;99.90;-2.60;97180.00;;;;5093944;28;20473;-78
2021/01/10 08:46:35;;;;;;;13.70;9.47;;;-1.20;99.90;-2.60;97183.00;;;;5090378;28;20494;-79
2021/01/10 08:49:04;;;;;;;11.67;8.33;;;-1.20;99.90;-2.50;97183.00;;;;5079395;28;20528;-79
2021/01/10 08:51:34;;;;;;;22.20;9.83;;;-1.20;99.90;-2.60;97195.00;;;;5067142;28;20545;-79
2021/01/10 08:54:10;;;;;;;27.67;14.23;;;-1.10;99.90;-2.60;97201.00;;;;5075258;28;20473;-80
2021/01/10 08:56:40;;;;;;;47.93;21.80;;;-1.20;99.90;-2.60;97209.00;;;;5076422;28;20478;-81
2021/01/10 08:59:12;;;;;;;33.13;17.60;;;-1.20;99.90;-2.50;97216.00;;;;5075674;28;20472;-80
2021/01/10 09:01:41;;;;;;;27.73;14.70;;;-1.20;99.90;-2.50;97232.00;;;;5077119;28;20511;-81
2021/01/10 09:04:10;;;;;;;32.83;15.17;;;-1.20;99.90;-2.40;97214.00;;;;5074234;28;20468;-80
2021/01/10 09:07:00;;;;;;;21.73;11.73;;;-1.10;99.90;-2.30;97217.00;;;;5075616;28;20549;-80
2021/01/10 09:09:47;;;;;;;22.17;11.27;;;-1.10;99.90;-2.30;97225.00;;;;5074427;28;20463;-79
2021/01/10 09:12:25;;;;;;;17.40;10.73;;;-1.00;99.90;-2.30;97227.00;;;;5046368;28;20612;-79
2021/01/10 09:14:59;;;;;;;14.63;10.70;;;-1.00;99.90;-2.20;97237.00;;;;5079982;28;20481;-78
2021/01/10 09:17:30;;;;;;;14.60;9.57;;;-1.00;99.90;-2.20;97228.00;;;;5094021;28;20463;-78
2021/01/10 09:20:08;;;;;;;19.07;12.67;;;-0.40;99.90;-2.10;97238.00;;;;5081332;28;20523;-79
2021/01/10 09:22:37;;;;;;;12.70;10.70;;;-0.90;99.90;-2.10;97245.00;;;;5072942;28;20484;-78
2021/01/10 09:25:17;;;;;;;14.07;10.53;;;-0.90;99.90;-2.10;97240.00;;;;5074439;28;20490;-80
2021/01/10 09:28:15;;;;;;;38.73;18.90;;;-0.80;99.90;-2.00;97239.00;;;;5072367;28;20481;-80
2021/01/10 09:30:45;;;;;;;19.20;11.13;;;-0.80;99.90;-2.00;97237.00;;;;5039047;28;20543;-80
2021/01/10 09:33:22;;;;;;;16.97;10.63;;;-0.70;99.90;-1.90;97229.00;;;;5073806;28;20473;-79
2021/01/10 09:35:53;;;;;;;10.27;8.10;;;-0.70;99.90;-1.90;97231.00;;;;5073594;28;20473;-79
2021/01/10 09:38:22;;;;;;;19.83;12.03;;;-0.70;99.90;-1.90;97227.00;;;;5072233;28;20466;-79
2021/01/10 09:41:08;;;;;;;21.43;12.60;;;-0.60;99.90;-1.80;97213.00;;;;5073781;28;20459;-78
2021/01/10 09:43:42;;;;;;;14.13;10.57;;;-0.60;99.90;-1.90;97214.00;;;;5074581;28;20474;-79
2021/01/10 09:46:33;;;;;;;15.60;10.90;;;-0.90;99.90;-1.80;97205.00;;;;5077859;28;20458;-78
2021/01/10 09:49:04;;;;;;;15.00;8.30;;;-0.60;99.90;-1.90;97225.00;;;;5075465;28;20532;-78
2021/01/10 09:51:40;;;;;;;10.10;7.60;;;-0.60;99.90;-1.80;97215.00;;;;5080661;28;20478;-80
2021/01/10 09:54:15;;;;;;;11.90;8.43;;;-0.60;99.90;-1.80;97211.00;;;;5079680;28;20458;-79
2021/01/10 09:56:47;;;;;;;14.10;9.83;;;-0.50;99.90;-1.70;97200.00;;;;5076952;28;20470;-79
2021/01/10 09:59:41;;;;;;;12.80;7.87;;;-0.50;99.90;-1.70;97198.00;;;;5074450;28;20466;-79
2021/01/10 10:02:17;;;;;;;10.63;7.37;;;-0.50;99.90;-1.70;97203.00;;;;5073523;28;20462;-79
2021/01/10 10:04:47;;;;;;;10.33;7.67;;;-0.50;99.90;-1.70;97191.00;;;;5069736;28;20458;-77
2021/01/10 10:07:30;;;;;;;18.50;9.43;;;-0.50;99.90;-1.70;97193.00;;;;5069218;28;20468;-78
2021/01/10 10:09:59;;;;;;;13.03;8.73;;;-0.40;99.90;-1.60;97182.00;;;;5067891;28;20989;-78
2021/01/10 10:12:28;;;;;;;20.70;10.07;;;-0.40;99.90;-1.60;97184.00;;;;5074724;28;20459;-78
2021/01/10 10:14:59;;;;;;;23.13;9.37;;;-0.40;99.90;-1.60;97187.00;;;;5078420;28;20497;-79
2021/01/10 10:17:32;;;;;;;11.63;8.53;;;-0.40;99.90;-1.60;97178.00;;;;5075356;28;20501;-77
2021/01/10 10:20:01;;;;;;;13.50;9.37;;;-0.40;99.90;-1.60;97184.00;;;;5078145;28;20462;-80
2021/01/10 10:22:31;;;;;;;12.43;8.70;;;-0.30;99.90;-1.60;97178.00;;;;5078460;28;20524;-80
2021/01/10 10:25:00;;;;;;;12.90;8.57;;;-0.40;99.90;-1.50;97175.00;;;;5076962;28;20473;-79
2021/01/10 10:27:30;;;;;;;12.03;8.70;;;-0.30;99.90;-1.50;97169.00;;;;5075428;28;20471;-79
2021/01/10 10:29:59;;;;;;;16.67;11.37;;;-0.40;99.90;-1.60;97169.00;;;;5076867;28;20470;-79
2021/01/10 10:32:30;;;;;;;13.30;9.77;;;-0.30;99.90;-1.50;97159.00;;;;5077493;28;20480;-81
2021/01/10 10:35:00;;;;;;;14.07;9.50;;;-0.20;99.90;-1.50;97169.00;;;;5079065;28;20473;-78
2021/01/10 10:37:28;;;;;;;16.00;9.63;;;-0.20;99.90;-1.50;97160.00;;;;5079382;28;20996;-79
2021/01/10 10:39:56;;;;;;;14.60;9.43;;;-0.20;99.90;-1.50;97151.00;;;;5076500;28;20466;-79
2021/01/10 10:42:24;;;;;;;13.10;9.77;;;-0.20;99.90;-1.50;97155.00;;;;5074165;28;20662;-79
2021/01/10 10:44:55;;;;;;;11.20;8.80;;;-0.20;99.90;-1.50;97147.00;;;;5066554;28;20471;-79
2021/01/10 10:47:22;;;;;;;18.40;9.30;;;-0.20;99.90;-1.50;97144.00;;;;5061601;28;20779;-78
2021/01/10 10:49:53;;;;;;;13.13;9.57;;;0.50;99.90;-1.50;97143.00;;;;5057029;28;20489;-79
2021/01/10 10:52:20;;;;;;;10.33;9.10;;;-0.20;99.90;-1.50;97132.00;;;;5072803;28;20458;-81
2021/01/10 10:54:48;;;;;;;16.93;9.43;;;-0.20;99.90;-1.60;97140.00;;;;5070665;28;20462;-80
2021/01/10 10:57:16;;;;;;;12.77;9.07;;;-0.20;99.90;-1.50;97128.00;;;;5075162;28;20458;-80
2021/01/10 10:59:44;;;;;;;13.00;8.97;;;-0.20;99.90;-1.50;97113.00;;;;5073436;28;20458;-81
2021/01/10 11:02:15;;;;;;;14.17;9.30;;;-0.20;99.90;-1.50;97120.00;;;;5074017;28;20474;-81
2021/01/10 11:04:45;;;;;;;10.37;8.57;;;1.30;99.90;-1.50;97107.00;;;;5072023;28;20457;-79
2021/01/10 11:07:13;;;;;;;15.27;9.97;;;-0.20;99.90;-1.50;97117.00;;;;5073082;28;20554;-79
2021/01/10 11:09:44;;;;;;;15.20;9.60;;;-0.20;99.90;-1.50;97122.00;;;;5069895;28;20530;-79
2021/01/10 11:12:14;;;;;;;14.63;9.97;;;-0.10;99.90;-1.50;97119.00;;;;5073607;28;20458;-78